createdAt,value
2019-03-01T00:01:18.657Z,10.31
2019-03-01T00:04:20.113Z,10.27
2019-03-01T00:07:49.991Z,10.16
2019-03-01T00:10:48.640Z,10.16
2019-03-01T00:14:34.450Z,10.25
2019-03-01T00:17:50.032Z,10.22
2019-03-01T00:21:19.751Z,10.20
2019-03-01T00:24:54.705Z,10.22
2019-03-01T00:27:59.106Z,10.10
2019-03-01T00:31:08.070Z,10.09
2019-03-01T00:34:27.200Z,10.07
2019-03-01T00:37:32.595Z,10.27
2019-03-01T00:40:53.214Z,10.21
2019-03-01T00:44:37.209Z,10.43
2019-03-01T00:47:08.608Z,10.51
2019-03-01T00:49:39.753Z,10.56
2019-03-01T00:52:10.837Z,10.56
2019-03-01T00:54:41.554Z,10.55
2019-03-01T00:57:12.205Z,10.52
2019-03-01T00:59:43.545Z,10.47
2019-03-01T01:02:15.406Z,10.49
2019-03-01T01:04:46.199Z,10.52
2019-03-01T01:07:17.596Z,10.49
2019-03-01T01:09:48.832Z,10.54
2019-03-01T01:12:20.380Z,10.47
2019-03-01T01:14:51.683Z,10.49
2019-03-01T01:17:21.997Z,10.63
2019-03-01T01:19:53.357Z,10.69
2019-03-01T01:22:24.710Z,10.65
2019-03-01T01:24:56.267Z,10.66
2019-03-01T01:27:27.301Z,10.77
2019-03-01T01:29:58.733Z,10.65
2019-03-01T01:32:30.690Z,10.63
2019-03-01T01:35:02.265Z,10.60
2019-03-01T01:37:33.643Z,10.67
2019-03-01T01:40:04.346Z,10.63
2019-03-01T01:42:35.791Z,10.62
2019-03-01T01:45:07.459Z,10.66
2019-03-01T01:47:39.513Z,10.71
2019-03-01T01:50:12.118Z,10.62
2019-03-01T01:52:43.334Z,10.57
2019-03-01T01:55:13.772Z,10.58
2019-03-01T01:57:44.805Z,10.53
2019-03-01T02:00:31.037Z,10.53
2019-03-01T03:01:53.103Z,9.80
2019-03-01T03:04:24.586Z,9.99
2019-03-01T03:07:01.559Z,9.96
2019-03-01T03:09:32.892Z,10.08
2019-03-01T03:12:03.201Z,10.14
2019-03-01T03:14:39.802Z,10.18
2019-03-01T03:17:10.820Z,10.13
2019-03-01T03:19:42.498Z,10.14
2019-03-01T03:22:13.850Z,10.18
2019-03-01T03:24:44.966Z,10.09
2019-03-01T03:27:16.418Z,10.05
2019-03-01T03:29:47.494Z,10.19
2019-03-01T03:32:18.452Z,10.21
2019-03-01T03:34:49.401Z,10.25
2019-03-01T03:37:20.796Z,10.36
2019-03-01T03:39:51.530Z,10.36
2019-03-01T03:42:23.373Z,10.40
2019-03-01T03:44:54.940Z,10.27
2019-03-01T03:47:26.098Z,10.37
2019-03-01T03:50:04.002Z,10.30
2019-03-01T03:52:34.656Z,10.34
2019-03-01T03:55:05.585Z,10.25
2019-03-01T03:57:36.607Z,10.17
2019-03-01T04:00:11.951Z,10.09
2019-03-01T04:02:45.104Z,10.05
2019-03-01T04:05:16.089Z,9.99
2019-03-01T04:07:48.016Z,9.99
2019-03-01T04:10:19.090Z,10.04
2019-03-01T04:12:50.462Z,10.08
2019-03-01T04:15:22.279Z,10.10
2019-03-01T04:17:56.619Z,10.11
2019-03-01T04:20:27.242Z,10.21
2019-03-01T04:22:58.589Z,10.21
2019-03-01T04:25:34.035Z,10.24
2019-03-01T04:28:04.729Z,10.28
2019-03-01T04:30:36.473Z,10.16
2019-03-01T04:33:07.916Z,10.17
2019-03-01T04:35:39.230Z,10.22
2019-03-01T04:38:10.975Z,10.20
2019-03-01T04:40:42.321Z,10.15
2019-03-01T04:43:13.761Z,10.15
2019-03-01T04:45:44.366Z,10.13
2019-03-01T04:48:15.923Z,10.13
2019-03-01T04:50:46.983Z,9.94
2019-03-01T04:53:19.130Z,9.77
2019-03-01T04:55:49.832Z,9.69
2019-03-01T04:58:20.501Z,9.35
2019-03-01T05:00:51.895Z,9.28
2019-03-01T05:03:22.613Z,9.23
2019-03-01T05:05:54.337Z,9.21
2019-03-01T05:08:26.256Z,9.22
2019-03-01T05:10:58.018Z,9.18
2019-03-01T05:13:29.607Z,9.14
2019-03-01T05:16:00.638Z,9.04
2019-03-01T05:18:32.048Z,9.10
2019-03-01T05:21:02.760Z,8.99
2019-03-01T05:23:33.897Z,8.94
2019-03-01T05:26:05.519Z,8.95
2019-03-01T05:28:36.198Z,8.98
2019-03-01T05:31:07.250Z,8.94
2019-03-01T05:33:44.679Z,8.87
2019-03-01T05:36:15.321Z,8.82
2019-03-01T05:38:45.680Z,8.90
2019-03-01T05:41:17.180Z,8.87
2019-03-01T05:44:04.880Z,8.91
2019-03-01T05:46:38.235Z,8.92
2019-03-01T05:49:10.195Z,8.94
2019-03-01T05:51:40.879Z,8.84
2019-03-01T05:54:12.226Z,8.82
2019-03-01T05:56:54.811Z,8.77
2019-03-01T05:59:29.404Z,8.78
2019-03-01T06:03:11.239Z,8.80
2019-03-01T06:05:42.974Z,8.69
2019-03-01T06:08:58.928Z,8.58
2019-03-01T06:11:58.599Z,8.66
2019-03-01T06:15:25.029Z,8.89
2019-03-01T06:19:07.922Z,8.99
2019-03-01T06:22:59.808Z,9.20
2019-03-01T06:25:51.960Z,9.22
2019-03-01T06:29:05.800Z,9.29
2019-03-01T06:32:31.471Z,9.26
2019-03-01T06:36:00.699Z,9.30
2019-03-01T06:40:05.098Z,9.27
2019-03-01T06:43:20.694Z,9.31
2019-03-01T06:47:02.143Z,9.26
2019-03-01T06:50:05.933Z,9.26
2019-03-01T06:52:46.181Z,9.31
2019-03-01T06:55:35.959Z,9.39
2019-03-01T06:59:05.890Z,9.40
2019-03-01T07:01:47.020Z,9.39
2019-03-01T07:04:19.236Z,9.37
2019-03-01T07:06:50.065Z,9.30
2019-03-01T07:09:21.005Z,9.30
2019-03-01T07:11:53.760Z,9.26
2019-03-01T07:14:25.073Z,9.24
2019-03-01T07:16:56.340Z,9.20
2019-03-01T07:19:27.758Z,9.13
2019-03-01T07:21:59.346Z,9.00
2019-03-01T07:24:30.391Z,8.90
2019-03-01T07:27:02.155Z,8.71
2019-03-01T07:29:33.540Z,8.70
2019-03-01T07:32:04.707Z,8.49
2019-03-01T07:34:36.333Z,8.35
2019-03-01T07:37:06.941Z,8.32
2019-03-01T07:39:38.279Z,8.35
2019-03-01T07:42:09.648Z,8.39
2019-03-01T07:44:41.311Z,8.39
2019-03-01T07:47:12.713Z,8.38
2019-03-01T07:49:44.661Z,8.39
2019-03-01T07:52:16.220Z,8.45
2019-03-01T07:54:52.986Z,8.43
2019-03-01T07:57:24.265Z,8.31
2019-03-01T07:59:55.643Z,8.25
2019-03-01T08:02:26.650Z,8.16
2019-03-01T08:05:00.025Z,8.14
2019-03-01T08:07:31.334Z,8.05
2019-03-01T08:10:02.909Z,7.97
2019-03-01T08:12:42.601Z,7.81
2019-03-01T08:15:16.442Z,7.73
2019-03-01T08:17:48.186Z,7.65
2019-03-01T08:20:19.514Z,7.68
2019-03-01T08:22:51.765Z,7.58
2019-03-01T08:25:24.687Z,7.57
2019-03-01T08:27:56.696Z,7.56
2019-03-01T08:30:28.133Z,7.57
2019-03-01T08:33:02.743Z,7.63
2019-03-01T08:35:32.540Z,7.60
2019-03-01T08:38:03.880Z,7.61
2019-03-01T08:40:34.924Z,7.62
2019-03-01T08:43:52.512Z,7.63
2019-03-01T08:46:26.816Z,7.58
2019-03-01T08:48:58.110Z,7.67
2019-03-01T08:51:29.463Z,7.66
2019-03-01T08:54:00.800Z,7.70
2019-03-01T08:56:36.696Z,7.67
2019-03-01T08:59:07.321Z,7.83
2019-03-01T09:01:38.279Z,7.84
2019-03-01T09:04:14.107Z,7.83
2019-03-01T09:06:45.775Z,7.82
2019-03-01T09:09:20.929Z,7.89
2019-03-01T09:11:55.712Z,7.98
2019-03-01T09:14:27.575Z,8.10
2019-03-01T09:16:58.853Z,8.17
2019-03-01T09:19:30.348Z,8.35
2019-03-01T09:22:01.010Z,8.52
2019-03-01T09:24:31.960Z,8.72
2019-03-01T09:27:03.668Z,8.88
2019-03-01T09:29:41.535Z,8.70
2019-03-01T09:32:07.882Z,8.74
2019-03-01T09:34:39.298Z,8.62
2019-03-01T09:37:10.423Z,8.46
2019-03-01T09:40:07.625Z,8.60
2019-03-01T09:42:39.101Z,8.61
2019-03-01T09:45:10.456Z,8.67
2019-03-01T09:47:43.355Z,8.70
2019-03-01T09:50:14.192Z,8.53
2019-03-01T09:52:46.790Z,8.59
2019-03-01T09:55:18.422Z,8.71
2019-03-01T09:57:55.346Z,8.88
2019-03-01T10:00:28.503Z,8.80
2019-03-01T10:02:59.458Z,9.24
2019-03-01T10:05:30.176Z,9.17
2019-03-01T10:08:01.497Z,9.72
2019-03-01T10:10:31.871Z,9.40
2019-03-01T10:13:02.860Z,9.54
2019-03-01T10:15:39.035Z,9.50
2019-03-01T10:18:10.426Z,9.57
2019-03-01T10:20:41.730Z,9.18
2019-03-01T10:23:13.071Z,8.80
2019-03-01T10:25:58.574Z,8.96
2019-03-01T10:28:30.664Z,8.80
2019-03-01T10:31:21.484Z,8.78
2019-03-01T10:33:56.439Z,8.59
2019-03-01T10:36:27.437Z,8.57
2019-03-01T10:39:16.171Z,8.60
2019-03-01T10:41:52.272Z,8.57
2019-03-01T10:44:31.870Z,8.47
2019-03-01T10:47:05.737Z,8.61
2019-03-01T10:49:37.393Z,8.49
2019-03-01T10:52:08.373Z,8.56
2019-03-01T10:54:39.707Z,8.51
2019-03-01T10:57:25.143Z,8.39
2019-03-01T10:59:56.597Z,8.46
2019-03-01T11:02:28.283Z,8.56
2019-03-01T11:04:59.447Z,8.51
2019-03-01T11:07:34.016Z,8.67
2019-03-01T11:10:05.169Z,8.92
2019-03-01T11:12:36.710Z,8.79
2019-03-01T11:15:09.428Z,8.78
2019-03-01T11:17:40.626Z,8.94
2019-03-01T11:20:12.175Z,9.05
2019-03-01T11:22:43.574Z,8.90
2019-03-01T11:25:15.434Z,8.97
2019-03-01T11:27:46.805Z,9.04
2019-03-01T11:30:23.964Z,9.40
2019-03-01T11:32:54.595Z,9.53
2019-03-01T11:35:25.539Z,9.43
2019-03-01T11:37:59.225Z,9.47
2019-03-01T11:40:32.591Z,9.76
2019-03-01T11:43:13.320Z,10.07
2019-03-01T11:45:43.599Z,10.32
2019-03-01T11:48:14.556Z,10.26
2019-03-01T11:50:45.977Z,10.37
2019-03-01T11:53:17.199Z,10.45
2019-03-01T11:55:52.702Z,10.24
2019-03-01T11:58:23.803Z,9.90
2019-03-01T12:00:54.747Z,10.07
2019-03-01T12:03:26.134Z,10.23
2019-03-01T12:05:57.971Z,10.57
2019-03-01T12:08:28.947Z,10.21
2019-03-01T12:11:00.516Z,10.47
2019-03-01T12:13:32.100Z,10.20
2019-03-01T12:16:03.353Z,10.19
2019-03-01T12:18:34.483Z,10.31
2019-03-01T12:21:06.176Z,10.08
2019-03-01T12:23:37.132Z,10.23
2019-03-01T12:26:08.572Z,10.32
2019-03-01T12:28:39.931Z,10.35
2019-03-01T12:31:15.163Z,10.32
2019-03-01T12:34:01.659Z,10.25
2019-03-01T12:36:37.959Z,10.07
2019-03-01T12:39:10.722Z,10.24
2019-03-01T12:41:42.287Z,10.15
2019-03-01T12:44:13.044Z,10.22
2019-03-01T12:46:44.520Z,10.22
2019-03-01T12:49:15.878Z,10.18
2019-03-01T12:51:47.444Z,10.28
2019-03-01T12:54:25.726Z,10.06
2019-03-01T12:56:56.725Z,10.08
2019-03-01T12:59:27.374Z,10.21
2019-03-01T13:01:58.684Z,10.24
2019-03-01T13:04:30.035Z,10.38
2019-03-01T13:07:01.055Z,10.45
2019-03-01T13:09:32.820Z,10.33
2019-03-01T13:12:04.201Z,10.44
2019-03-01T13:14:36.716Z,10.53
2019-03-01T13:17:08.298Z,10.48
2019-03-01T13:19:39.345Z,10.48
2019-03-01T13:22:10.372Z,10.45
2019-03-01T13:24:41.604Z,10.05
2019-03-01T13:27:17.468Z,10.00
2019-03-01T13:29:47.773Z,10.03
2019-03-01T13:32:19.918Z,10.03
2019-03-01T13:34:51.201Z,10.03
2019-03-01T13:37:22.277Z,10.01
2019-03-01T13:39:53.611Z,9.90
2019-03-01T13:42:25.009Z,9.84
2019-03-01T13:44:56.305Z,9.83
2019-03-01T13:47:27.446Z,10.12
2019-03-01T13:49:58.219Z,10.13
2019-03-01T13:52:29.982Z,10.08
2019-03-01T13:55:02.116Z,10.08
2019-03-01T13:57:33.132Z,10.15
2019-03-01T14:00:03.428Z,9.91
2019-03-01T14:02:34.516Z,10.01
2019-03-01T14:05:13.270Z,9.95
2019-03-01T14:07:44.793Z,9.81
2019-03-01T14:10:17.704Z,9.68
2019-03-01T14:12:48.529Z,9.69
2019-03-01T14:15:20.979Z,9.65
2019-03-01T14:17:51.642Z,9.46
2019-03-01T14:20:22.248Z,9.33
2019-03-01T14:22:53.390Z,9.29
2019-03-01T14:25:25.066Z,9.26
2019-03-01T14:27:56.449Z,9.14
2019-03-01T14:30:30.330Z,9.11
2019-03-01T14:32:59.870Z,9.12
2019-03-01T14:35:31.435Z,9.08
2019-03-01T14:38:03.839Z,9.18
2019-03-01T14:40:35.626Z,9.16
2019-03-01T14:43:24.089Z,9.14
2019-03-01T14:45:56.566Z,9.10
2019-03-01T14:48:28.334Z,9.05
2019-03-01T14:50:59.106Z,8.98
2019-03-01T14:53:31.225Z,8.92
2019-03-01T14:56:18.423Z,8.90
2019-03-01T14:58:59.816Z,8.89
2019-03-01T15:02:22.040Z,8.97
2019-03-01T15:04:55.156Z,8.99
2019-03-01T15:07:27.948Z,8.94
2019-03-01T15:10:02.085Z,8.92
2019-03-01T15:12:33.552Z,8.95
2019-03-01T15:15:04.234Z,8.94
2019-03-01T15:17:35.333Z,8.94
2019-03-01T15:20:07.914Z,8.84
2019-03-01T15:22:39.228Z,8.77
2019-03-01T15:25:15.094Z,8.77
2019-03-01T15:27:45.870Z,8.77
2019-03-01T15:30:19.454Z,8.78
2019-03-01T15:32:52.488Z,8.92
2019-03-01T15:35:23.677Z,8.86
2019-03-01T15:37:55.434Z,8.73
2019-03-01T15:40:27.824Z,8.67
2019-03-01T15:42:58.902Z,8.80
2019-03-01T15:45:30.329Z,8.67
2019-03-01T15:48:04.622Z,8.69
2019-03-01T15:50:35.841Z,8.66
2019-03-01T15:53:07.008Z,8.63
2019-03-01T15:55:38.420Z,8.64
2019-03-01T15:58:09.387Z,8.67
2019-03-01T16:00:40.427Z,8.71
2019-03-01T16:03:11.324Z,8.77
2019-03-01T16:05:42.013Z,8.84
2019-03-01T16:08:13.142Z,8.82
2019-03-01T16:10:44.771Z,8.82
2019-03-01T16:13:15.833Z,8.79
2019-03-01T16:15:47.385Z,8.81
2019-03-01T16:18:19.104Z,8.77
2019-03-01T16:20:50.722Z,8.74
2019-03-01T16:23:22.734Z,8.74
2019-03-01T16:25:56.390Z,8.75
2019-03-01T16:28:27.425Z,8.68
2019-03-01T16:31:00.344Z,8.65
2019-03-01T16:33:31.582Z,8.68
2019-03-01T16:36:04.225Z,8.68
2019-03-01T16:38:40.967Z,8.71
2019-03-01T16:41:08.506Z,8.65
2019-03-01T16:43:39.377Z,8.62
2019-03-01T16:46:10.009Z,8.63
2019-03-01T16:48:41.167Z,8.61
2019-03-01T16:51:15.530Z,8.56
2019-03-01T16:53:46.217Z,8.54
2019-03-01T16:56:18.978Z,8.56
2019-03-01T16:58:50.041Z,8.53
2019-03-01T17:01:21.110Z,8.50
2019-03-01T17:03:53.757Z,8.48
2019-03-01T17:06:25.129Z,8.45
2019-03-01T17:08:56.167Z,8.53
2019-03-01T17:11:27.696Z,8.47
2019-03-01T17:13:59.579Z,8.46
2019-03-01T17:16:31.733Z,8.37
2019-03-01T17:19:02.481Z,8.30
2019-03-01T17:21:33.817Z,8.17
2019-03-01T17:24:04.475Z,8.04
2019-03-01T17:26:35.053Z,7.99
2019-03-01T17:29:06.148Z,7.97
2019-03-01T17:31:37.704Z,7.91
2019-03-01T17:34:09.114Z,7.85
2019-03-01T17:36:39.788Z,7.84
2019-03-01T17:39:10.801Z,7.92
2019-03-01T17:41:45.871Z,7.88
2019-03-01T17:44:15.122Z,7.93
2019-03-01T17:46:46.475Z,7.86
2019-03-01T17:49:18.389Z,7.88
2019-03-01T17:51:49.589Z,7.81
2019-03-01T17:54:22.287Z,7.75
2019-03-01T17:56:57.239Z,7.76
2019-03-01T17:59:27.824Z,7.91
2019-03-01T18:01:59.265Z,7.92
2019-03-01T18:04:33.632Z,7.97
2019-03-01T18:07:03.929Z,7.86
2019-03-01T18:09:36.499Z,7.84
2019-03-01T18:12:08.277Z,7.88
2019-03-01T18:14:39.769Z,7.94
2019-03-01T18:17:11.508Z,7.86
2019-03-01T18:19:43.154Z,7.83
2019-03-01T18:22:14.586Z,7.87
2019-03-01T18:24:46.721Z,7.94
2019-03-01T18:27:18.828Z,7.85
2019-03-01T18:29:50.223Z,7.90
2019-03-01T18:32:21.902Z,7.94
2019-03-01T18:34:53.232Z,7.86
2019-03-01T18:37:23.921Z,7.87
2019-03-01T18:39:54.926Z,7.94
2019-03-01T18:42:26.511Z,7.91
2019-03-01T18:44:57.810Z,7.85
2019-03-01T18:47:30.745Z,7.88
2019-03-01T18:50:02.466Z,7.84
2019-03-01T18:52:34.203Z,7.68
2019-03-01T18:55:04.954Z,7.79
2019-03-01T18:57:38.661Z,7.68
2019-03-01T19:00:25.959Z,7.70
2019-03-01T19:02:57.603Z,7.70
2019-03-01T19:05:28.324Z,7.60
2019-03-01T19:08:00.907Z,7.67
2019-03-01T19:10:32.063Z,7.73
2019-03-01T19:13:03.131Z,7.69
2019-03-01T19:15:35.090Z,7.79
2019-03-01T19:18:06.236Z,7.88
2019-03-01T19:20:37.939Z,7.92
2019-03-01T19:23:10.657Z,7.91
2019-03-01T19:25:41.839Z,8.00
2019-03-01T19:28:13.562Z,7.86
2019-03-01T19:30:45.942Z,7.82
2019-03-01T19:33:21.169Z,7.91
2019-03-01T19:35:52.366Z,7.86
2019-03-01T19:38:25.106Z,7.96
2019-03-01T19:40:57.180Z,7.96
2019-03-01T19:43:28.492Z,7.87
2019-03-01T19:46:00.131Z,7.87
2019-03-01T19:48:34.487Z,7.86
2019-03-01T19:51:12.393Z,7.87
2019-03-01T19:53:43.782Z,7.89
2019-03-01T19:56:14.888Z,7.92
2019-03-01T19:58:48.023Z,7.96
2019-03-01T20:01:19.318Z,8.08
2019-03-01T20:03:50.378Z,8.18
2019-03-01T20:06:22.107Z,8.11
2019-03-01T20:08:53.320Z,8.07
2019-03-01T20:11:26.736Z,8.06
2019-03-01T20:13:57.098Z,8.07
2019-03-01T20:16:28.127Z,8.11
2019-03-01T20:18:59.905Z,8.05
2019-03-01T20:21:31.599Z,8.01
2019-03-01T20:24:05.237Z,7.89
2019-03-01T20:26:35.585Z,7.80
2019-03-01T20:29:06.280Z,7.67
2019-03-01T20:31:40.568Z,7.71
2019-03-01T20:34:11.043Z,7.58
2019-03-01T20:36:42.098Z,7.58
2019-03-01T20:39:15.631Z,7.58
2019-03-01T20:41:47.345Z,7.54
2019-03-01T20:44:18.733Z,7.60
2019-03-01T20:46:59.979Z,7.64
2019-03-01T20:49:31.101Z,7.61
2019-03-01T20:52:03.530Z,7.65
2019-03-01T20:54:34.677Z,7.60
2019-03-01T20:57:04.962Z,7.51
2019-03-01T20:59:36.223Z,7.46
2019-03-01T21:02:09.614Z,7.47
2019-03-01T21:04:52.998Z,7.43
2019-03-01T21:07:15.805Z,7.35
2019-03-01T21:09:47.919Z,7.34
2019-03-01T21:12:18.955Z,7.41
2019-03-01T21:14:50.715Z,7.39
2019-03-01T21:17:22.394Z,7.35
2019-03-01T21:19:53.524Z,7.29
2019-03-01T21:22:24.884Z,7.23
2019-03-01T21:24:59.405Z,7.25
2019-03-01T21:27:29.368Z,7.26
2019-03-01T21:30:00.371Z,7.16
2019-03-01T21:32:31.060Z,7.16
2019-03-01T21:35:02.320Z,7.20
2019-03-01T21:37:34.765Z,7.23
2019-03-01T21:40:06.907Z,7.24
2019-03-01T21:42:38.664Z,7.21
2019-03-01T21:45:13.189Z,7.17
2019-03-01T21:47:44.688Z,7.16
2019-03-01T21:50:16.790Z,7.11
2019-03-01T21:52:48.262Z,7.16
2019-03-01T21:55:18.866Z,7.16
2019-03-01T21:57:50.016Z,7.13
2019-03-01T22:00:25.219Z,7.08
2019-03-01T22:02:56.816Z,7.09
2019-03-01T22:05:27.937Z,7.09
2019-03-01T22:07:58.883Z,7.06
2019-03-01T22:10:31.515Z,7.15
2019-03-01T22:13:04.118Z,7.20
2019-03-01T22:15:35.218Z,7.18
2019-03-01T22:18:05.833Z,7.13
2019-03-01T22:20:37.764Z,7.12
2019-03-01T22:23:10.225Z,7.15
2019-03-01T22:25:41.191Z,7.10
2019-03-01T22:28:12.544Z,7.19
2019-03-01T22:30:43.835Z,7.18
2019-03-01T22:33:17.369Z,7.19
2019-03-01T22:35:49.017Z,7.18
2019-03-01T22:38:20.401Z,7.09
2019-03-01T22:40:51.128Z,7.11
2019-03-01T22:43:25.762Z,7.13
2019-03-01T22:45:55.323Z,7.09
2019-03-01T22:48:26.799Z,7.04
2019-03-01T22:50:58.176Z,7.04
2019-03-01T22:53:30.809Z,7.02
2019-03-01T22:56:02.672Z,7.03
2019-03-01T22:58:36.463Z,7.14
2019-03-01T23:01:17.273Z,7.13
2019-03-01T23:04:13.361Z,7.14
2019-03-01T23:06:47.644Z,7.20
2019-03-01T23:09:17.504Z,7.19
2019-03-01T23:11:48.378Z,7.20
2019-03-01T23:14:20.001Z,7.27
2019-03-01T23:16:54.375Z,7.17
2019-03-01T23:19:23.721Z,7.21
2019-03-01T23:21:55.269Z,7.16
2019-03-01T23:24:26.252Z,7.17
2019-03-01T23:26:58.183Z,7.13
2019-03-01T23:29:50.989Z,7.07
2019-03-01T23:32:20.047Z,7.07
2019-03-01T23:34:50.646Z,7.02
2019-03-01T23:37:21.288Z,7.18
2019-03-01T23:39:52.769Z,7.20
2019-03-01T23:42:24.507Z,7.18
2019-03-01T23:45:05.595Z,7.11
2019-03-01T23:47:39.728Z,7.10
2019-03-01T23:50:10.525Z,7.13
2019-03-01T23:52:42.368Z,7.17
2019-03-01T23:55:42.031Z,7.12
2019-03-01T23:58:15.867Z,7.16
